sensor_id;sensor_type;location;lat;lon;timestamp;pressure;altitude;pressure_sealevel;temperature;humidity
77047;BME280;65977;56.380;44.022;2023-02-11T00:01:28;100562.91;;;-0.25;61.87
77047;BME280;65977;56.380;44.022;2023-02-11T00:03:55;100558.47;;;-0.23;61.41
77047;BME280;65977;56.380;44.022;2023-02-11T00:06:21;100557.72;;;-0.25;61.63
77047;BME280;65977;56.380;44.022;2023-02-11T00:08:46;100552.19;;;-0.17;60.93
77047;BME280;65977;56.380;44.022;2023-02-11T00:11:15;100557.47;;;-0.19;61.41
77047;BME280;65977;56.380;44.022;2023-02-11T00:13:42;100562.00;;;-0.24;61.69
77047;BME280;65977;56.380;44.022;2023-02-11T00:16:10;100561.81;;;-0.19;61.83
77047;BME280;65977;56.380;44.022;2023-02-11T00:18:36;100555.72;;;-0.18;60.98
77047;BME280;65977;56.380;44.022;2023-02-11T00:21:14;100555.56;;;-0.15;61.00
77047;BME280;65977;56.380;44.022;2023-02-11T00:23:40;100567.72;;;-0.16;61.10
77047;BME280;65977;56.380;44.022;2023-02-11T00:28:39;100545.06;;;-0.12;61.12
77047;BME280;65977;56.380;44.022;2023-02-11T00:31:05;100531.44;;;-0.17;61.13
77047;BME280;65977;56.380;44.022;2023-02-11T00:33:31;100549.28;;;-0.10;60.88
77047;BME280;65977;56.380;44.022;2023-02-11T00:35:56;100535.53;;;-0.12;60.54
77047;BME280;65977;56.380;44.022;2023-02-11T00:38:22;100541.50;;;-0.10;60.73
77047;BME280;65977;56.380;44.022;2023-02-11T00:40:47;100538.00;;;-0.09;60.41
77047;BME280;65977;56.380;44.022;2023-02-11T00:43:13;100532.03;;;-0.11;60.66
77047;BME280;65977;56.380;44.022;2023-02-11T00:45:39;100539.66;;;-0.08;60.32
77047;BME280;65977;56.380;44.022;2023-02-11T00:48:04;100536.06;;;-0.04;60.12
77047;BME280;65977;56.380;44.022;2023-02-11T00:50:30;100540.38;;;-0.04;60.13
77047;BME280;65977;56.380;44.022;2023-02-11T00:52:55;100539.53;;;-0.05;60.72
77047;BME280;65977;56.380;44.022;2023-02-11T00:55:21;100536.09;;;-0.05;60.62
77047;BME280;65977;56.380;44.022;2023-02-11T00:57:47;100539.63;;;-0.06;60.44
77047;BME280;65977;56.380;44.022;2023-02-11T01:00:13;100536.91;;;-0.03;60.28
77047;BME280;65977;56.380;44.022;2023-02-11T01:02:39;100550.66;;;-0.01;60.09
77047;BME280;65977;56.380;44.022;2023-02-11T01:05:05;100546.34;;;-0.02;59.93
77047;BME280;65977;56.380;44.022;2023-02-11T01:07:31;100547.28;;;-0.03;59.82
77047;BME280;65977;56.380;44.022;2023-02-11T01:09:56;100547.97;;;0.00;59.80
77047;BME280;65977;56.380;44.022;2023-02-11T01:12:23;100557.47;;;0.02;59.90
77047;BME280;65977;56.380;44.022;2023-02-11T01:14:48;100558.13;;;0.07;59.73
77047;BME280;65977;56.380;44.022;2023-02-11T01:17:14;100528.13;;;-0.01;59.48
77047;BME280;65977;56.380;44.022;2023-02-11T01:19:40;100532.59;;;-0.04;59.77
77047;BME280;65977;56.380;44.022;2023-02-11T01:22:06;100548.91;;;-0.01;59.84
77047;BME280;65977;56.380;44.022;2023-02-11T01:24:32;100525.06;;;-0.10;59.88
77047;BME280;65977;56.380;44.022;2023-02-11T01:26:58;100531.22;;;-0.13;60.36
77047;BME280;65977;56.380;44.022;2023-02-11T01:29:24;100534.63;;;-0.11;59.70
77047;BME280;65977;56.380;44.022;2023-02-11T01:31:49;100521.25;;;-0.22;60.17
77047;BME280;65977;56.380;44.022;2023-02-11T01:34:15;100526.34;;;-0.20;59.71
77047;BME280;65977;56.380;44.022;2023-02-11T01:36:40;100521.75;;;-0.34;59.79
77047;BME280;65977;56.380;44.022;2023-02-11T01:39:07;100523.38;;;-0.31;59.47
77047;BME280;65977;56.380;44.022;2023-02-11T01:41:33;100525.53;;;-0.41;59.71
77047;BME280;65977;56.380;44.022;2023-02-11T01:44:26;100536.22;;;-0.48;60.16
77047;BME280;65977;56.380;44.022;2023-02-11T01:46:53;100540.44;;;-0.46;60.26
77047;BME280;65977;56.380;44.022;2023-02-11T01:49:31;100531.72;;;-0.45;60.36
77047;BME280;65977;56.380;44.022;2023-02-11T01:54:30;100529.78;;;-0.40;60.32
77047;BME280;65977;56.380;44.022;2023-02-11T01:57:19;100528.50;;;-0.30;60.31
77047;BME280;65977;56.380;44.022;2023-02-11T02:00:14;100534.31;;;-0.23;60.34
77047;BME280;65977;56.380;44.022;2023-02-11T02:08:15;100510.53;;;-0.14;60.22
77047;BME280;65977;56.380;44.022;2023-02-11T02:10:44;100521.69;;;-0.12;59.73
77047;BME280;65977;56.380;44.022;2023-02-11T02:13:11;100525.78;;;-0.07;60.09
77047;BME280;65977;56.380;44.022;2023-02-11T02:15:43;100534.44;;;-0.06;59.44
77047;BME280;65977;56.380;44.022;2023-02-11T02:38:30;100544.88;;;0.13;59.84
77047;BME280;65977;56.380;44.022;2023-02-11T02:41:05;100536.13;;;0.15;59.76
77047;BME280;65977;56.380;44.022;2023-02-11T02:43:33;100526.28;;;0.22;59.46
77047;BME280;65977;56.380;44.022;2023-02-11T02:46:25;100531.34;;;0.25;58.95
77047;BME280;65977;56.380;44.022;2023-02-11T02:48:52;100528.13;;;0.20;59.37
77047;BME280;65977;56.380;44.022;2023-02-11T02:54:15;100538.09;;;0.29;59.39
77047;BME280;65977;56.380;44.022;2023-02-11T03:02:28;100536.25;;;0.31;59.01
77047;BME280;65977;56.380;44.022;2023-02-11T03:07:57;100528.53;;;0.29;59.58
77047;BME280;65977;56.380;44.022;2023-02-11T03:10:30;100504.78;;;0.18;59.11
77047;BME280;65977;56.380;44.022;2023-02-11T03:12:58;100519.00;;;0.30;59.06
77047;BME280;65977;56.380;44.022;2023-02-11T03:15:27;100526.03;;;0.28;59.49
77047;BME280;65977;56.380;44.022;2023-02-11T03:17:57;100514.66;;;0.30;59.12
77047;BME280;65977;56.380;44.022;2023-02-11T03:20:26;100516.41;;;0.30;59.33
77047;BME280;65977;56.380;44.022;2023-02-11T03:23:05;100508.53;;;0.31;59.61
77047;BME280;65977;56.380;44.022;2023-02-11T03:25:50;100511.00;;;0.34;59.24
77047;BME280;65977;56.380;44.022;2023-02-11T03:30:53;100492.50;;;0.22;59.33
77047;BME280;65977;56.380;44.022;2023-02-11T03:33:27;100508.41;;;0.34;59.16
77047;BME280;65977;56.380;44.022;2023-02-11T03:35:59;100510.91;;;0.36;59.42
77047;BME280;65977;56.380;44.022;2023-02-11T03:38:31;100499.69;;;0.35;59.60
77047;BME280;65977;56.380;44.022;2023-02-11T03:40:58;100507.53;;;0.34;59.16
77047;BME280;65977;56.380;44.022;2023-02-11T03:43:36;100504.75;;;0.38;59.44
77047;BME280;65977;56.380;44.022;2023-02-11T03:46:04;100515.84;;;0.42;58.93
77047;BME280;65977;56.380;44.022;2023-02-11T03:48:31;100509.13;;;0.38;59.48
77047;BME280;65977;56.380;44.022;2023-02-11T03:51:00;100510.03;;;0.37;58.95
77047;BME280;65977;56.380;44.022;2023-02-11T03:53:27;100521.31;;;0.36;59.47
77047;BME280;65977;56.380;44.022;2023-02-11T03:55:55;100499.63;;;0.37;59.00
77047;BME280;65977;56.380;44.022;2023-02-11T03:58:24;100508.28;;;0.37;59.30
77047;BME280;65977;56.380;44.022;2023-02-11T04:00:50;100507.19;;;0.41;59.08
77047;BME280;65977;56.380;44.022;2023-02-11T04:03:16;100510.56;;;0.43;59.25
77047;BME280;65977;56.380;44.022;2023-02-11T04:05:41;100508.81;;;0.44;59.66
77047;BME280;65977;56.380;44.022;2023-02-11T04:08:08;100508.06;;;0.42;59.44
77047;BME280;65977;56.380;44.022;2023-02-11T04:10:33;100497.53;;;0.45;59.47
77047;BME280;65977;56.380;44.022;2023-02-11T04:12:59;100514.53;;;0.52;59.30
77047;BME280;65977;56.380;44.022;2023-02-11T04:15:25;100509.31;;;0.52;59.28
77047;BME280;65977;56.380;44.022;2023-02-11T04:17:50;100509.47;;;0.49;59.52
77047;BME280;65977;56.380;44.022;2023-02-11T04:20:16;100508.25;;;0.56;59.31
77047;BME280;65977;56.380;44.022;2023-02-11T04:22:42;100510.03;;;0.55;58.88
77047;BME280;65977;56.380;44.022;2023-02-11T04:25:08;100505.75;;;0.54;59.43
77047;BME280;65977;56.380;44.022;2023-02-11T04:27:34;100493.50;;;0.56;59.13
77047;BME280;65977;56.380;44.022;2023-02-11T04:29:59;100505.34;;;0.63;58.94
77047;BME280;65977;56.380;44.022;2023-02-11T04:32:25;100501.13;;;0.61;59.19
77047;BME280;65977;56.380;44.022;2023-02-11T04:34:51;100486.69;;;0.54;58.92
77047;BME280;65977;56.380;44.022;2023-02-11T04:37:16;100499.97;;;0.67;58.88
77047;BME280;65977;56.380;44.022;2023-02-11T04:39:42;100499.00;;;0.69;59.02
77047;BME280;65977;56.380;44.022;2023-02-11T04:42:08;100495.63;;;0.67;59.06
77047;BME280;65977;56.380;44.022;2023-02-11T04:44:33;100496.25;;;0.72;58.66
77047;BME280;65977;56.380;44.022;2023-02-11T04:46:59;100515.44;;;0.70;58.72
77047;BME280;65977;56.380;44.022;2023-02-11T04:49:25;100501.31;;;0.75;58.49
77047;BME280;65977;56.380;44.022;2023-02-11T04:51:50;100498.84;;;0.72;58.89
77047;BME280;65977;56.380;44.022;2023-02-11T04:54:16;100480.47;;;0.58;58.81
77047;BME280;65977;56.380;44.022;2023-02-11T04:56:42;100511.84;;;0.72;59.04
77047;BME280;65977;56.380;44.022;2023-02-11T04:59:08;100504.91;;;0.73;58.67
77047;BME280;65977;56.380;44.022;2023-02-11T05:01:33;100503.94;;;0.75;58.88
77047;BME280;65977;56.380;44.022;2023-02-11T05:03:59;100503.94;;;0.75;58.61
77047;BME280;65977;56.380;44.022;2023-02-11T05:06:25;100491.13;;;0.71;58.47
77047;BME280;65977;56.380;44.022;2023-02-11T05:08:50;100505.41;;;0.81;58.12
77047;BME280;65977;56.380;44.022;2023-02-11T05:11:19;100497.59;;;0.81;58.45
77047;BME280;65977;56.380;44.022;2023-02-11T05:13:46;100505.19;;;0.85;58.17
77047;BME280;65977;56.380;44.022;2023-02-11T05:16:12;100507.66;;;0.88;58.23
77047;BME280;65977;56.380;44.022;2023-02-11T05:18:40;100516.09;;;0.93;57.68
77047;BME280;65977;56.380;44.022;2023-02-11T05:21:14;100503.69;;;0.98;57.48
77047;BME280;65977;56.380;44.022;2023-02-11T05:23:40;100502.94;;;0.96;57.87
77047;BME280;65977;56.380;44.022;2023-02-11T05:26:07;100497.38;;;1.04;57.86
77047;BME280;65977;56.380;44.022;2023-02-11T05:28:33;100495.06;;;1.15;57.32
77047;BME280;65977;56.380;44.022;2023-02-11T05:31:00;100490.59;;;1.18;56.81
77047;BME280;65977;56.380;44.022;2023-02-11T05:33:26;100491.97;;;1.25;56.21
77047;BME280;65977;56.380;44.022;2023-02-11T05:35:58;100493.06;;;1.39;56.26
77047;BME280;65977;56.380;44.022;2023-02-11T05:38:24;100498.59;;;1.50;55.80
77047;BME280;65977;56.380;44.022;2023-02-11T05:40:50;100500.03;;;1.55;55.71
77047;BME280;65977;56.380;44.022;2023-02-11T05:43:15;100496.28;;;1.61;55.84
77047;BME280;65977;56.380;44.022;2023-02-11T05:45:41;100498.75;;;1.64;55.51
77047;BME280;65977;56.380;44.022;2023-02-11T05:48:07;100492.06;;;1.58;54.87
77047;BME280;65977;56.380;44.022;2023-02-11T05:50:32;100496.84;;;1.67;55.54
77047;BME280;65977;56.380;44.022;2023-02-11T05:52:58;100507.06;;;1.70;54.91
77047;BME280;65977;56.380;44.022;2023-02-11T05:55:24;100491.44;;;1.70;55.11
77047;BME280;65977;56.380;44.022;2023-02-11T05:57:49;100492.16;;;1.74;54.33
77047;BME280;65977;56.380;44.022;2023-02-11T06:00:15;100503.94;;;1.81;54.70
77047;BME280;65977;56.380;44.022;2023-02-11T06:02:41;100490.53;;;1.88;54.31
77047;BME280;65977;56.380;44.022;2023-02-11T06:05:07;100487.91;;;1.88;54.36
77047;BME280;65977;56.380;44.022;2023-02-11T06:07:33;100498.03;;;1.95;53.84
77047;BME280;65977;56.380;44.022;2023-02-11T06:09:58;100492.44;;;2.02;53.73
77047;BME280;65977;56.380;44.022;2023-02-11T06:12:24;100491.72;;;2.16;53.32
77047;BME280;65977;56.380;44.022;2023-02-11T06:14:50;100486.72;;;2.28;53.56
77047;BME280;65977;56.380;44.022;2023-02-11T06:17:15;100491.78;;;2.47;53.20
77047;BME280;65977;56.380;44.022;2023-02-11T06:19:41;100500.16;;;2.69;52.42
77047;BME280;65977;56.380;44.022;2023-02-11T06:22:07;100490.06;;;2.79;51.64
77047;BME280;65977;56.380;44.022;2023-02-11T06:24:33;100493.91;;;3.03;51.44
77047;BME280;65977;56.380;44.022;2023-02-11T06:26:58;100505.19;;;3.19;50.51
77047;BME280;65977;56.380;44.022;2023-02-11T06:29:24;100504.06;;;3.39;50.02
77047;BME280;65977;56.380;44.022;2023-02-11T06:31:49;100480.44;;;3.56;49.92
77047;BME280;65977;56.380;44.022;2023-02-11T06:34:15;100484.41;;;3.77;49.60
77047;BME280;65977;56.380;44.022;2023-02-11T06:36:41;100503.84;;;3.87;49.30
77047;BME280;65977;56.380;44.022;2023-02-11T06:39:09;100488.19;;;4.01;48.92
77047;BME280;65977;56.380;44.022;2023-02-11T06:41:35;100488.13;;;4.17;48.88
77047;BME280;65977;56.380;44.022;2023-02-11T06:44:02;100488.78;;;4.34;48.11
77047;BME280;65977;56.380;44.022;2023-02-11T06:46:28;100489.03;;;4.44;47.97
77047;BME280;65977;56.380;44.022;2023-02-11T06:48:53;100494.28;;;4.44;47.73
77047;BME280;65977;56.380;44.022;2023-02-11T06:51:19;100488.31;;;4.42;47.09
77047;BME280;65977;56.380;44.022;2023-02-11T06:53:45;100485.22;;;4.35;47.48
77047;BME280;65977;56.380;44.022;2023-02-11T06:56:14;100490.06;;;4.41;47.16
77047;BME280;65977;56.380;44.022;2023-02-11T06:58:40;100502.59;;;4.36;46.65
77047;BME280;65977;56.380;44.022;2023-02-11T07:01:09;100489.91;;;4.44;47.14
77047;BME280;65977;56.380;44.022;2023-02-11T07:03:37;100486.59;;;4.55;46.85
77047;BME280;65977;56.380;44.022;2023-02-11T07:06:04;100498.19;;;4.65;46.57
77047;BME280;65977;56.380;44.022;2023-02-11T07:08:35;100490.31;;;4.79;45.74
77047;BME280;65977;56.380;44.022;2023-02-11T07:11:10;100489.44;;;4.93;45.95
77047;BME280;65977;56.380;44.022;2023-02-11T07:13:36;100484.84;;;4.96;45.60
77047;BME280;65977;56.380;44.022;2023-02-11T07:16:09;100496.41;;;5.06;45.70
77047;BME280;65977;56.380;44.022;2023-02-11T07:18:36;100500.41;;;5.12;45.28
77047;BME280;65977;56.380;44.022;2023-02-11T07:21:06;100510.88;;;5.26;45.23
77047;BME280;65977;56.380;44.022;2023-02-11T07:23:32;100489.13;;;5.38;45.15
77047;BME280;65977;56.380;44.022;2023-02-11T07:26:02;100492.06;;;5.46;44.48
77047;BME280;65977;56.380;44.022;2023-02-11T07:28:28;100509.38;;;5.49;44.14
77047;BME280;65977;56.380;44.022;2023-02-11T07:30:53;100504.38;;;5.58;44.09
77047;BME280;65977;56.380;44.022;2023-02-11T07:33:19;100513.09;;;5.59;43.81
77047;BME280;65977;56.380;44.022;2023-02-11T07:35:45;100503.22;;;5.62;43.49
77047;BME280;65977;56.380;44.022;2023-02-11T07:38:10;100511.19;;;5.61;43.68
77047;BME280;65977;56.380;44.022;2023-02-11T07:40:36;100511.53;;;5.69;43.44
77047;BME280;65977;56.380;44.022;2023-02-11T07:43:02;100512.25;;;5.71;43.99
77047;BME280;65977;56.380;44.022;2023-02-11T07:45:27;100515.41;;;5.76;43.43
77047;BME280;65977;56.380;44.022;2023-02-11T07:47:53;100517.50;;;5.71;43.39
77047;BME280;65977;56.380;44.022;2023-02-11T07:50:18;100518.63;;;5.67;43.52
77047;BME280;65977;56.380;44.022;2023-02-11T07:52:44;100508.56;;;5.61;43.51
77047;BME280;65977;56.380;44.022;2023-02-11T07:55:10;100505.28;;;5.57;43.40
77047;BME280;65977;56.380;44.022;2023-02-11T07:57:35;100519.75;;;5.50;43.56
77047;BME280;65977;56.380;44.022;2023-02-11T08:00:06;100534.44;;;5.53;43.42
77047;BME280;65977;56.380;44.022;2023-02-11T08:02:32;100519.03;;;5.48;43.68
77047;BME280;65977;56.380;44.022;2023-02-11T08:04:57;100530.59;;;5.58;43.20
77047;BME280;65977;56.380;44.022;2023-02-11T08:07:23;100514.94;;;5.57;43.02
77047;BME280;65977;56.380;44.022;2023-02-11T08:09:49;100525.44;;;5.69;42.67
77047;BME280;65977;56.380;44.022;2023-02-11T08:12:14;100524.03;;;5.78;43.15
77047;BME280;65977;56.380;44.022;2023-02-11T08:14:40;100507.50;;;5.90;42.57
77047;BME280;65977;56.380;44.022;2023-02-11T08:17:06;100523.59;;;6.23;42.33
77047;BME280;65977;56.380;44.022;2023-02-11T08:19:31;100518.44;;;6.60;41.44
77047;BME280;65977;56.380;44.022;2023-02-11T08:21:57;100509.56;;;6.86;40.51
77047;BME280;65977;56.380;44.022;2023-02-11T08:24:24;100521.78;;;7.58;39.87
77047;BME280;65977;56.380;44.022;2023-02-11T08:26:50;100522.53;;;7.95;39.33
77047;BME280;65977;56.380;44.022;2023-02-11T08:29:16;100515.16;;;8.11;38.56
77047;BME280;65977;56.380;44.022;2023-02-11T08:31:45;100507.19;;;8.23;37.89
77047;BME280;65977;56.380;44.022;2023-02-11T08:34:12;100525.53;;;8.36;37.74
77047;BME280;65977;56.380;44.022;2023-02-11T08:36:41;100526.97;;;8.62;37.59
77047;BME280;65977;56.380;44.022;2023-02-11T08:39:12;100523.59;;;8.82;36.71
77047;BME280;65977;56.380;44.022;2023-02-11T08:41:38;100523.22;;;9.09;36.23
77047;BME280;65977;56.380;44.022;2023-02-11T08:44:03;100524.03;;;9.32;35.80
77047;BME280;65977;56.380;44.022;2023-02-11T08:46:29;100535.97;;;9.47;35.50
77047;BME280;65977;56.380;44.022;2023-02-11T08:48:57;100533.84;;;9.30;35.20
77047;BME280;65977;56.380;44.022;2023-02-11T08:51:26;100530.28;;;9.20;35.54
77047;BME280;65977;56.380;44.022;2023-02-11T08:53:52;100541.59;;;9.00;36.08
77047;BME280;65977;56.380;44.022;2023-02-11T08:56:19;100537.88;;;8.58;35.63
77047;BME280;65977;56.380;44.022;2023-02-11T08:58:46;100541.34;;;8.36;36.38
77047;BME280;65977;56.380;44.022;2023-02-11T09:01:18;100541.97;;;8.16;37.03
77047;BME280;65977;56.380;44.022;2023-02-11T09:03:44;100542.06;;;8.03;37.05
77047;BME280;65977;56.380;44.022;2023-02-11T09:06:11;100530.44;;;7.95;37.18
77047;BME280;65977;56.380;44.022;2023-02-11T09:08:40;100531.63;;;8.02;37.42
77047;BME280;65977;56.380;44.022;2023-02-11T09:11:06;100533.09;;;8.06;36.99
77047;BME280;65977;56.380;44.022;2023-02-11T09:13:32;100538.38;;;8.17;37.00
77047;BME280;65977;56.380;44.022;2023-02-11T09:15:59;100522.81;;;8.14;36.29
77047;BME280;65977;56.380;44.022;2023-02-11T09:18:25;100530.06;;;8.34;36.49
77047;BME280;65977;56.380;44.022;2023-02-11T09:20:53;100533.69;;;8.66;35.58
77047;BME280;65977;56.380;44.022;2023-02-11T09:23:18;100517.44;;;9.15;35.36
77047;BME280;65977;56.380;44.022;2023-02-11T09:25:44;100526.38;;;9.78;34.67
77047;BME280;65977;56.380;44.022;2023-02-11T09:28:09;100521.91;;;10.91;33.36
77047;BME280;65977;56.380;44.022;2023-02-11T09:30:36;100520.00;;;11.71;31.39
77047;BME280;65977;56.380;44.022;2023-02-11T09:33:02;100507.84;;;12.53;30.39
77047;BME280;65977;56.380;44.022;2023-02-11T09:35:28;100508.16;;;12.50;30.10
77047;BME280;65977;56.380;44.022;2023-02-11T09:37:54;100520.78;;;12.20;30.27
77047;BME280;65977;56.380;44.022;2023-02-11T09:40:20;100531.69;;;11.88;31.17
77047;BME280;65977;56.380;44.022;2023-02-11T09:42:52;100533.22;;;11.62;31.06
77047;BME280;65977;56.380;44.022;2023-02-11T09:45:27;100525.63;;;11.28;31.08
77047;BME280;65977;56.380;44.022;2023-02-11T09:48:09;100539.53;;;10.81;30.95
77047;BME280;65977;56.380;44.022;2023-02-11T09:50:42;100534.72;;;10.35;31.27
77047;BME280;65977;56.380;44.022;2023-02-11T09:53:17;100542.88;;;9.91;31.85
77047;BME280;65977;56.380;44.022;2023-02-11T09:55:48;100546.44;;;9.69;32.71
77047;BME280;65977;56.380;44.022;2023-02-11T09:58:31;100547.44;;;9.57;32.34
77047;BME280;65977;56.380;44.022;2023-02-11T10:20:35;100546.84;;;10.68;31.19
77047;BME280;65977;56.380;44.022;2023-02-11T10:23:13;100544.66;;;11.81;29.83
77047;BME280;65977;56.380;44.022;2023-02-11T10:25:46;100536.97;;;13.37;28.14
77047;BME280;65977;56.380;44.022;2023-02-11T10:28:16;100526.03;;;15.37;25.96
77047;BME280;65977;56.380;44.022;2023-02-11T10:31:04;100510.06;;;17.44;23.77
77047;BME280;65977;56.380;44.022;2023-02-11T10:36:24;100509.06;;;20.57;20.88
77047;BME280;65977;56.380;44.022;2023-02-11T10:38:50;100525.75;;;21.14;19.54
77047;BME280;65977;56.380;44.022;2023-02-11T10:41:20;100514.75;;;21.70;18.98
77047;BME280;65977;56.380;44.022;2023-02-11T10:43:47;100512.75;;;21.98;18.68
77047;BME280;65977;56.380;44.022;2023-02-11T10:46:17;100511.28;;;22.41;18.28
77047;BME280;65977;56.380;44.022;2023-02-11T10:48:45;100515.56;;;22.88;17.62
77047;BME280;65977;56.380;44.022;2023-02-11T10:51:32;100514.47;;;23.15;17.19
77047;BME280;65977;56.380;44.022;2023-02-11T10:56:40;100520.88;;;20.62;18.06
77047;BME280;65977;56.380;44.022;2023-02-11T10:59:18;100518.91;;;18.35;18.72
77047;BME280;65977;56.380;44.022;2023-02-11T11:02:00;100529.00;;;16.08;21.21
77047;BME280;65977;56.380;44.022;2023-02-11T11:06:56;100517.63;;;13.44;24.29
77047;BME280;65977;56.380;44.022;2023-02-11T11:09:43;100525.06;;;12.40;25.49
77047;BME280;65977;56.380;44.022;2023-02-11T11:12:38;100521.19;;;11.67;26.81
77047;BME280;65977;56.380;44.022;2023-02-11T11:17:47;100517.16;;;10.85;27.65
77047;BME280;65977;56.380;44.022;2023-02-11T11:20:26;100527.47;;;10.58;28.25
77047;BME280;65977;56.380;44.022;2023-02-11T11:23:17;100519.94;;;10.53;28.51
77047;BME280;65977;56.380;44.022;2023-02-11T11:25:58;100518.00;;;10.55;29.03
77047;BME280;65977;56.380;44.022;2023-02-11T11:28:27;100512.28;;;10.50;28.90
77047;BME280;65977;56.380;44.022;2023-02-11T11:30:54;100521.63;;;10.54;29.00
77047;BME280;65977;56.380;44.022;2023-02-11T11:33:27;100520.28;;;10.39;28.96
77047;BME280;65977;56.380;44.022;2023-02-11T11:36:08;100519.19;;;10.72;28.80
77047;BME280;65977;56.380;44.022;2023-02-11T11:38:36;100510.66;;;10.59;28.72
77047;BME280;65977;56.380;44.022;2023-02-11T11:43:58;100516.53;;;10.00;29.65
77047;BME280;65977;56.380;44.022;2023-02-11T11:46:33;100511.72;;;9.53;30.27
77047;BME280;65977;56.380;44.022;2023-02-11T11:49:22;100515.19;;;9.11;31.00
77047;BME280;65977;56.380;44.022;2023-02-11T11:55:17;100504.28;;;8.15;32.03
77047;BME280;65977;56.380;44.022;2023-02-11T11:57:45;100508.78;;;8.02;32.09
77047;BME280;65977;56.380;44.022;2023-02-11T12:00:35;100515.59;;;7.94;32.56
77047;BME280;65977;56.380;44.022;2023-02-11T12:03:52;100513.66;;;7.85;32.60
77047;BME280;65977;56.380;44.022;2023-02-11T12:06:40;100511.78;;;7.63;32.73
77047;BME280;65977;56.380;44.022;2023-02-11T12:14:48;100508.81;;;7.20;33.42
77047;BME280;65977;56.380;44.022;2023-02-11T12:25:53;100521.25;;;6.06;35.21
77047;BME280;65977;56.380;44.022;2023-02-11T12:28:34;100506.56;;;5.91;35.46
77047;BME280;65977;56.380;44.022;2023-02-11T12:34:41;100522.00;;;6.21;35.08
77047;BME280;65977;56.380;44.022;2023-02-11T12:48:38;100519.47;;;5.94;35.24
77047;BME280;65977;56.380;44.022;2023-02-11T12:56:28;100530.03;;;5.00;37.07
77047;BME280;65977;56.380;44.022;2023-02-11T12:58:58;100537.06;;;4.71;37.18
77047;BME280;65977;56.380;44.022;2023-02-11T13:01:34;100534.38;;;4.44;37.64
77047;BME280;65977;56.380;44.022;2023-02-11T13:06:45;100537.59;;;4.06;38.76
77047;BME280;65977;56.380;44.022;2023-02-11T13:09:33;100537.81;;;3.87;39.36
77047;BME280;65977;56.380;44.022;2023-02-11T13:12:02;100532.63;;;3.71;39.16
77047;BME280;65977;56.380;44.022;2023-02-11T13:14:53;100528.66;;;3.50;39.96
77047;BME280;65977;56.380;44.022;2023-02-11T13:17:31;100534.47;;;3.40;39.61
77047;BME280;65977;56.380;44.022;2023-02-11T13:20:26;100529.38;;;3.23;40.06
77047;BME280;65977;56.380;44.022;2023-02-11T13:25:53;100519.94;;;2.89;41.55
77047;BME280;65977;56.380;44.022;2023-02-11T13:28:31;100513.00;;;2.72;41.51
77047;BME280;65977;56.380;44.022;2023-02-11T13:31:01;100518.81;;;2.62;41.28
77047;BME280;65977;56.380;44.022;2023-02-11T13:33:33;100517.63;;;2.51;41.39
77047;BME280;65977;56.380;44.022;2023-02-11T13:38:27;100511.84;;;2.29;41.87
77047;BME280;65977;56.380;44.022;2023-02-11T13:41:27;100518.31;;;2.22;41.77
77047;BME280;65977;56.380;44.022;2023-02-11T13:43:43;100519.00;;;2.09;42.50
77047;BME280;65977;56.380;44.022;2023-02-11T13:46:13;100518.88;;;1.95;43.39
77047;BME280;65977;56.380;44.022;2023-02-11T13:48:49;100512.31;;;1.87;43.56
77047;BME280;65977;56.380;44.022;2023-02-11T13:51:31;100509.84;;;1.84;42.66
77047;BME280;65977;56.380;44.022;2023-02-11T13:53:58;100512.94;;;1.75;42.80
77047;BME280;65977;56.380;44.022;2023-02-11T13:56:30;100501.94;;;1.69;43.51
77047;BME280;65977;56.380;44.022;2023-02-11T13:58:59;100506.69;;;1.61;43.55
77047;BME280;65977;56.380;44.022;2023-02-11T14:01:43;100503.63;;;1.53;43.51
77047;BME280;65977;56.380;44.022;2023-02-11T14:13:35;100500.00;;;1.21;44.13
77047;BME280;65977;56.380;44.022;2023-02-11T14:16:14;100490.72;;;1.15;43.96
77047;BME280;65977;56.380;44.022;2023-02-11T14:21:31;100478.16;;;1.06;44.58
77047;BME280;65977;56.380;44.022;2023-02-11T14:26:28;100473.34;;;0.99;45.72
77047;BME280;65977;56.380;44.022;2023-02-11T14:40:32;100469.47;;;0.89;45.62
77047;BME280;65977;56.380;44.022;2023-02-11T14:43:23;100465.28;;;0.86;45.51
77047;BME280;65977;56.380;44.022;2023-02-11T14:45:53;100461.81;;;0.86;45.41
77047;BME280;65977;56.380;44.022;2023-02-11T14:48:30;100455.63;;;0.88;45.56
77047;BME280;65977;56.380;44.022;2023-02-11T14:51:18;100454.56;;;0.92;45.50
77047;BME280;65977;56.380;44.022;2023-02-11T14:53:51;100448.69;;;0.89;45.59
77047;BME280;65977;56.380;44.022;2023-02-11T14:56:23;100430.84;;;0.81;45.91
77047;BME280;65977;56.380;44.022;2023-02-11T14:58:51;100450.44;;;0.88;45.75
77047;BME280;65977;56.380;44.022;2023-02-11T15:01:30;100455.53;;;0.90;46.14
77047;BME280;65977;56.380;44.022;2023-02-11T15:04:01;100435.31;;;0.78;45.91
77047;BME280;65977;56.380;44.022;2023-02-11T15:06:41;100446.84;;;0.91;45.69
77047;BME280;65977;56.380;44.022;2023-02-11T15:09:20;100440.03;;;0.88;46.18
77047;BME280;65977;56.380;44.022;2023-02-11T15:11:50;100446.75;;;0.92;45.80
77047;BME280;65977;56.380;44.022;2023-02-11T15:14:27;100438.09;;;0.92;45.38
77047;BME280;65977;56.380;44.022;2023-02-11T15:16:59;100435.50;;;0.92;45.49
77047;BME280;65977;56.380;44.022;2023-02-11T15:19:35;100442.47;;;0.91;45.04
77047;BME280;65977;56.380;44.022;2023-02-11T15:22:14;100434.88;;;0.87;45.35
77047;BME280;65977;56.380;44.022;2023-02-11T15:25:07;100436.13;;;0.97;44.45
77047;BME280;65977;56.380;44.022;2023-02-11T15:27:42;100422.50;;;0.92;44.82
77047;BME280;65977;56.380;44.022;2023-02-11T15:32:47;100434.84;;;1.05;44.36
77047;BME280;65977;56.380;44.022;2023-02-11T15:35:13;100428.72;;;1.06;44.42